sensor_id;sensor_type;location;lat;lon;timestamp;pressure;altitude;pressure_sealevel;temperature;humidity
9538;BME280;4807;48.024;11.726;2023-04-22T00:00:55;94448.28;;;7.54;79.06
9538;BME280;4807;48.024;11.726;2023-04-22T00:04:03;94445.19;;;7.50;79.03
9538;BME280;4807;48.024;11.726;2023-04-22T00:07:13;94449.81;;;7.42;79.08
9538;BME280;4807;48.024;11.726;2023-04-22T00:10:21;94448.19;;;7.41;79.01
9538;BME280;4807;48.024;11.726;2023-04-22T00:13:29;94449.16;;;7.33;79.17
9538;BME280;4807;48.024;11.726;2023-04-22T00:16:40;94444.81;;;7.25;79.31
9538;BME280;4807;48.024;11.726;2023-04-22T00:19:48;94448.91;;;7.28;79.82
9538;BME280;4807;48.024;11.726;2023-04-22T00:22:57;94444.81;;;7.25;79.31
9538;BME280;4807;48.024;11.726;2023-04-22T00:26:05;94453.34;;;7.21;79.43
9538;BME280;4807;48.024;11.726;2023-04-22T00:29:13;94450.47;;;7.22;79.50
9538;BME280;4807;48.024;11.726;2023-04-22T00:32:23;94450.13;;;7.25;79.45
9538;BME280;4807;48.024;11.726;2023-04-22T00:35:32;94449.25;;;7.18;79.64
9538;BME280;4807;48.024;11.726;2023-04-22T00:38:47;94448.75;;;7.08;79.33
9538;BME280;4807;48.024;11.726;2023-04-22T00:41:55;94456.06;;;7.06;79.43
9538;BME280;4807;48.024;11.726;2023-04-22T00:45:09;94448.34;;;7.05;80.14
9538;BME280;4807;48.024;11.726;2023-04-22T00:48:20;94444.22;;;7.02;79.76
9538;BME280;4807;48.024;11.726;2023-04-22T00:51:28;94439.94;;;7.01;79.81
9538;BME280;4807;48.024;11.726;2023-04-22T00:54:39;94441.34;;;6.97;80.13
9538;BME280;4807;48.024;11.726;2023-04-22T00:57:49;94447.84;;;6.95;80.47
9538;BME280;4807;48.024;11.726;2023-04-22T01:00:59;94441.34;;;6.97;80.50
9538;BME280;4807;48.024;11.726;2023-04-22T01:04:08;94445.38;;;6.93;79.85
9538;BME280;4807;48.024;11.726;2023-04-22T01:07:18;94441.28;;;6.90;80.17
9538;BME280;4807;48.024;11.726;2023-04-22T01:10:28;94440.84;;;6.87;80.29
9538;BME280;4807;48.024;11.726;2023-04-22T01:13:36;94448.53;;;6.82;80.35
9538;BME280;4807;48.024;11.726;2023-04-22T01:16:45;94448.16;;;6.85;80.37
9538;BME280;4807;48.024;11.726;2023-04-22T01:19:57;94446.47;;;6.77;80.60
9538;BME280;4807;48.024;11.726;2023-04-22T01:23:11;94452.56;;;6.78;80.25
9538;BME280;4807;48.024;11.726;2023-04-22T01:26:22;94457.41;;;6.74;80.54
9538;BME280;4807;48.024;11.726;2023-04-22T01:29:31;94455.34;;;6.70;80.99
9538;BME280;4807;48.024;11.726;2023-04-22T01:32:40;94444.41;;;6.73;80.93
9538;BME280;4807;48.024;11.726;2023-04-22T01:35:49;94440.72;;;6.74;80.63
9538;BME280;4807;48.024;11.726;2023-04-22T01:38:59;94441.34;;;6.76;80.49
9538;BME280;4807;48.024;11.726;2023-04-22T01:42:08;94440.28;;;6.70;80.45
9538;BME280;4807;48.024;11.726;2023-04-22T01:45:19;94443.75;;;6.71;80.46
9538;BME280;4807;48.024;11.726;2023-04-22T01:48:28;94442.94;;;6.70;80.57
9538;BME280;4807;48.024;11.726;2023-04-22T01:51:37;94452.06;;;6.68;80.28
9538;BME280;4807;48.024;11.726;2023-04-22T01:54:47;94446.00;;;6.74;80.16
9538;BME280;4807;48.024;11.726;2023-04-22T01:57:56;94451.31;;;6.74;80.03
9538;BME280;4807;48.024;11.726;2023-04-22T02:01:04;94458.53;;;6.65;80.03
9538;BME280;4807;48.024;11.726;2023-04-22T02:04:15;94455.78;;;6.52;80.22
9538;BME280;4807;48.024;11.726;2023-04-22T02:07:24;94453.06;;;6.45;80.86
9538;BME280;4807;48.024;11.726;2023-04-22T02:10:33;94453.81;;;6.39;80.25
9538;BME280;4807;48.024;11.726;2023-04-22T02:13:42;94458.41;;;6.31;80.31
9538;BME280;4807;48.024;11.726;2023-04-22T02:16:50;94451.78;;;6.20;80.74
9538;BME280;4807;48.024;11.726;2023-04-22T02:19:59;94456.16;;;6.13;80.46
9538;BME280;4807;48.024;11.726;2023-04-22T02:23:09;94456.16;;;6.13;80.60
9538;BME280;4807;48.024;11.726;2023-04-22T02:26:19;94457.28;;;6.04;80.80
9538;BME280;4807;48.024;11.726;2023-04-22T02:29:28;94456.47;;;5.89;81.09
9538;BME280;4807;48.024;11.726;2023-04-22T02:32:37;94462.91;;;5.86;81.79
9538;BME280;4807;48.024;11.726;2023-04-22T02:35:46;94454.63;;;6.04;81.24
9538;BME280;4807;48.024;11.726;2023-04-22T02:38:57;94458.84;;;5.84;81.84
9538;BME280;4807;48.024;11.726;2023-04-22T02:42:07;94456.09;;;5.77;81.34
9538;BME280;4807;48.024;11.726;2023-04-22T02:45:15;94463.66;;;5.65;81.96
9538;BME280;4807;48.024;11.726;2023-04-22T02:48:24;94457.28;;;5.60;82.24
9538;BME280;4807;48.024;11.726;2023-04-22T02:51:33;94465.00;;;5.61;81.75
9538;BME280;4807;48.024;11.726;2023-04-22T02:54:41;94461.75;;;5.59;82.15
9538;BME280;4807;48.024;11.726;2023-04-22T02:57:50;94457.19;;;5.53;82.06
9538;BME280;4807;48.024;11.726;2023-04-22T03:00:59;94444.97;;;5.52;82.37
9538;BME280;4807;48.024;11.726;2023-04-22T03:04:07;94444.97;;;5.52;82.28
9538;BME280;4807;48.024;11.726;2023-04-22T03:07:15;94444.06;;;5.45;82.46
9538;BME280;4807;48.024;11.726;2023-04-22T03:10:24;94442.25;;;5.46;82.28
9538;BME280;4807;48.024;11.726;2023-04-22T03:13:33;94439.53;;;5.39;82.58
9538;BME280;4807;48.024;11.726;2023-04-22T03:16:41;94444.34;;;5.35;82.00
9538;BME280;4807;48.024;11.726;2023-04-22T03:19:50;94454.19;;;5.27;82.18
9538;BME280;4807;48.024;11.726;2023-04-22T03:23:00;94446.53;;;5.32;82.42
9538;BME280;4807;48.024;11.726;2023-04-22T03:26:09;94440.34;;;5.40;81.74
9538;BME280;4807;48.024;11.726;2023-04-22T03:29:20;94439.44;;;5.18;82.21
9538;BME280;4807;48.024;11.726;2023-04-22T03:32:28;94446.50;;;5.03;82.99
9538;BME280;4807;48.024;11.726;2023-04-22T03:35:53;94440.75;;;4.99;83.14
9538;BME280;4807;48.024;11.726;2023-04-22T03:39:03;94438.47;;;4.96;82.86
9538;BME280;4807;48.024;11.726;2023-04-22T03:42:13;94441.81;;;4.90;83.29
9538;BME280;4807;48.024;11.726;2023-04-22T03:45:25;94441.66;;;4.91;82.84
9538;BME280;4807;48.024;11.726;2023-04-22T03:48:48;94442.00;;;4.88;83.10
9538;BME280;4807;48.024;11.726;2023-04-22T03:52:05;94443.63;;;4.89;83.09
9538;BME280;4807;48.024;11.726;2023-04-22T03:55:16;94443.28;;;4.92;82.60
9538;BME280;4807;48.024;11.726;2023-04-22T03:58:25;94442.38;;;4.85;83.24
9538;BME280;4807;48.024;11.726;2023-04-22T04:01:38;94443.88;;;4.80;83.00
9538;BME280;4807;48.024;11.726;2023-04-22T04:04:48;94450.69;;;4.74;83.05
9538;BME280;4807;48.024;11.726;2023-04-22T04:07:58;94448.13;;;4.66;83.33
9538;BME280;4807;48.024;11.726;2023-04-22T04:11:08;94453.06;;;4.69;83.06
9538;BME280;4807;48.024;11.726;2023-04-22T04:14:17;94458.81;;;4.87;82.39
9538;BME280;4807;48.024;11.726;2023-04-22T04:17:28;94449.63;;;4.83;82.56
9538;BME280;4807;48.024;11.726;2023-04-22T04:20:39;94450.63;;;4.82;82.57
9538;BME280;4807;48.024;11.726;2023-04-22T04:23:48;94453.47;;;4.95;82.11
9538;BME280;4807;48.024;11.726;2023-04-22T04:27:00;94454.41;;;5.03;82.00
9538;BME280;4807;48.024;11.726;2023-04-22T04:30:17;94452.06;;;5.08;82.01
9538;BME280;4807;48.024;11.726;2023-04-22T04:33:32;94459.91;;;5.16;81.79
9538;BME280;4807;48.024;11.726;2023-04-22T04:36:44;94458.34;;;5.21;80.78
9538;BME280;4807;48.024;11.726;2023-04-22T04:40:00;94456.59;;;5.14;81.14
9538;BME280;4807;48.024;11.726;2023-04-22T04:43:22;94457.53;;;5.21;81.46
9538;BME280;4807;48.024;11.726;2023-04-22T04:46:58;94461.13;;;5.43;79.34
9538;BME280;4807;48.024;11.726;2023-04-22T04:50:10;94454.28;;;5.48;79.88
9538;BME280;4807;48.024;11.726;2023-04-22T04:53:21;94450.91;;;5.54;79.91
9538;BME280;4807;48.024;11.726;2023-04-22T04:56:32;94449.16;;;5.61;79.71
9538;BME280;4807;48.024;11.726;2023-04-22T04:59:42;94459.63;;;5.69;79.53
9538;BME280;4807;48.024;11.726;2023-04-22T05:02:51;94451.72;;;5.99;78.31
9538;BME280;4807;48.024;11.726;2023-04-22T05:06:03;94458.06;;;6.19;77.34
9538;BME280;4807;48.024;11.726;2023-04-22T05:09:14;94447.94;;;6.23;77.84
9538;BME280;4807;48.024;11.726;2023-04-22T05:12:25;94452.25;;;6.45;78.42
9538;BME280;4807;48.024;11.726;2023-04-22T05:15:34;94458.41;;;6.95;76.15
9538;BME280;4807;48.024;11.726;2023-04-22T05:18:43;94454.81;;;7.58;74.55
9538;BME280;4807;48.024;11.726;2023-04-22T05:21:55;94453.16;;;7.85;73.07
9538;BME280;4807;48.024;11.726;2023-04-22T05:25:05;94452.22;;;7.71;72.99
9538;BME280;4807;48.024;11.726;2023-04-22T05:28:13;94450.81;;;7.69;73.01
9538;BME280;4807;48.024;11.726;2023-04-22T05:31:29;94454.16;;;7.84;73.05
9538;BME280;4807;48.024;11.726;2023-04-22T05:34:37;94458.44;;;7.85;72.71
9538;BME280;4807;48.024;11.726;2023-04-22T05:37:47;94450.75;;;7.96;71.64
9538;BME280;4807;48.024;11.726;2023-04-22T05:40:55;94445.56;;;8.23;70.77
9538;BME280;4807;48.024;11.726;2023-04-22T05:44:04;94452.06;;;8.88;69.68
9538;BME280;4807;48.024;11.726;2023-04-22T05:47:13;94445.56;;;9.36;68.25
9538;BME280;4807;48.024;11.726;2023-04-22T05:50:22;94446.16;;;9.51;67.91
9538;BME280;4807;48.024;11.726;2023-04-22T05:53:41;94467.16;;;9.86;66.77
9538;BME280;4807;48.024;11.726;2023-04-22T05:56:49;94460.75;;;10.07;66.66
9538;BME280;4807;48.024;11.726;2023-04-22T05:59:58;94463.63;;;10.18;65.87
9538;BME280;4807;48.024;11.726;2023-04-22T06:03:07;94466.91;;;10.58;65.17
9538;BME280;4807;48.024;11.726;2023-04-22T06:06:16;94464.88;;;12.16;60.99
9538;BME280;4807;48.024;11.726;2023-04-22T06:09:27;94470.59;;;14.16;54.52
9538;BME280;4807;48.024;11.726;2023-04-22T06:12:35;94468.34;;;16.11;49.73
9538;BME280;4807;48.024;11.726;2023-04-22T06:15:43;94465.91;;;17.67;44.73
9538;BME280;4807;48.024;11.726;2023-04-22T06:18:51;94470.56;;;18.56;41.61
9538;BME280;4807;48.024;11.726;2023-04-22T06:22:01;94484.66;;;18.26;40.06
9538;BME280;4807;48.024;11.726;2023-04-22T06:25:11;94480.03;;;19.31;38.92
9538;BME280;4807;48.024;11.726;2023-04-22T06:28:19;94486.09;;;20.24;37.54
9538;BME280;4807;48.024;11.726;2023-04-22T06:31:30;94481.44;;;20.70;36.00
9538;BME280;4807;48.024;11.726;2023-04-22T06:34:39;94480.22;;;21.12;35.77
9538;BME280;4807;48.024;11.726;2023-04-22T06:37:47;94481.16;;;21.46;34.75
9538;BME280;4807;48.024;11.726;2023-04-22T06:40:57;94482.69;;;21.62;33.92
9538;BME280;4807;48.024;11.726;2023-04-22T06:44:10;94476.69;;;21.70;34.31
9538;BME280;4807;48.024;11.726;2023-04-22T06:47:39;94476.28;;;21.48;33.93
9538;BME280;4807;48.024;11.726;2023-04-22T06:50:51;94473.28;;;22.28;33.14
9538;BME280;4807;48.024;11.726;2023-04-22T06:54:00;94476.88;;;22.71;33.62
9538;BME280;4807;48.024;11.726;2023-04-22T06:57:10;94474.00;;;22.91;30.97
9538;BME280;4807;48.024;11.726;2023-04-22T07:00:18;94476.00;;;23.04;30.62
9538;BME280;4807;48.024;11.726;2023-04-22T07:03:26;94476.22;;;23.32;31.03
9538;BME280;4807;48.024;11.726;2023-04-22T07:06:45;94467.03;;;23.28;31.00
9538;BME280;4807;48.024;11.726;2023-04-22T07:09:54;94470.91;;;23.21;29.90
9538;BME280;4807;48.024;11.726;2023-04-22T07:13:07;94470.69;;;23.79;29.88
9538;BME280;4807;48.024;11.726;2023-04-22T07:16:15;94466.44;;;23.31;29.60
9538;BME280;4807;48.024;11.726;2023-04-22T07:19:23;94471.19;;;23.01;28.77
9538;BME280;4807;48.024;11.726;2023-04-22T07:22:32;94461.03;;;22.59;30.35
9538;BME280;4807;48.024;11.726;2023-04-22T07:25:40;94460.16;;;22.64;31.39
9538;BME280;4807;48.024;11.726;2023-04-22T07:28:50;94465.31;;;22.89;31.18
9538;BME280;4807;48.024;11.726;2023-04-22T07:31:58;94460.50;;;23.29;31.23
9538;BME280;4807;48.024;11.726;2023-04-22T07:35:07;94457.47;;;23.54;30.78
9538;BME280;4807;48.024;11.726;2023-04-22T07:38:15;94449.63;;;22.57;29.62
9538;BME280;4807;48.024;11.726;2023-04-22T07:41:24;94453.91;;;21.27;33.54
9538;BME280;4807;48.024;11.726;2023-04-22T07:44:33;94444.91;;;22.44;29.78
9538;BME280;4807;48.024;11.726;2023-04-22T07:47:45;94448.84;;;21.99;30.85
9538;BME280;4807;48.024;11.726;2023-04-22T07:50:53;94454.94;;;21.76;31.34
9538;BME280;4807;48.024;11.726;2023-04-22T07:54:01;94454.69;;;22.40;30.39
9538;BME280;4807;48.024;11.726;2023-04-22T07:57:09;94461.13;;;22.78;31.18
9538;BME280;4807;48.024;11.726;2023-04-22T08:00:19;94456.22;;;21.88;31.18
9538;BME280;4807;48.024;11.726;2023-04-22T08:03:27;94454.28;;;23.04;30.36
9538;BME280;4807;48.024;11.726;2023-04-22T08:06:36;94457.59;;;22.49;29.99
9538;BME280;4807;48.024;11.726;2023-04-22T08:09:44;94468.03;;;22.89;29.58
9538;BME280;4807;48.024;11.726;2023-04-22T08:12:52;94459.84;;;22.94;29.43
9538;BME280;4807;48.024;11.726;2023-04-22T08:16:03;94459.44;;;23.48;29.41
9538;BME280;4807;48.024;11.726;2023-04-22T08:19:13;94457.19;;;23.74;28.29
9538;BME280;4807;48.024;11.726;2023-04-22T08:22:21;94463.59;;;23.41;29.54
9538;BME280;4807;48.024;11.726;2023-04-22T08:25:30;94459.22;;;22.73;29.27
9538;BME280;4807;48.024;11.726;2023-04-22T08:28:39;94456.63;;;21.66;31.56
9538;BME280;4807;48.024;11.726;2023-04-22T08:31:49;94449.25;;;22.45;31.13
9538;BME280;4807;48.024;11.726;2023-04-22T08:34:58;94456.34;;;23.12;29.71
9538;BME280;4807;48.024;11.726;2023-04-22T08:38:11;94459.16;;;22.55;30.61
9538;BME280;4807;48.024;11.726;2023-04-22T08:41:21;94459.06;;;22.07;32.52
9538;BME280;4807;48.024;11.726;2023-04-22T08:44:30;94463.06;;;22.15;31.61
9538;BME280;4807;48.024;11.726;2023-04-22T08:47:41;94464.19;;;19.55;35.44
9538;BME280;4807;48.024;11.726;2023-04-22T08:50:51;94460.75;;;21.05;34.34
9538;BME280;4807;48.024;11.726;2023-04-22T08:54:00;94464.25;;;21.64;32.31
9538;BME280;4807;48.024;11.726;2023-04-22T08:57:13;94459.84;;;21.29;32.81
9538;BME280;4807;48.024;11.726;2023-04-22T09:00:22;94462.84;;;22.11;32.63
9538;BME280;4807;48.024;11.726;2023-04-22T09:03:33;94456.44;;;22.55;31.22
9538;BME280;4807;48.024;11.726;2023-04-22T09:06:42;94455.63;;;21.03;35.54
9538;BME280;4807;48.024;11.726;2023-04-22T09:09:52;94452.50;;;21.40;32.48
9538;BME280;4807;48.024;11.726;2023-04-22T09:13:03;94447.59;;;21.81;33.98
9538;BME280;4807;48.024;11.726;2023-04-22T09:16:11;94440.69;;;21.21;34.63
9538;BME280;4807;48.024;11.726;2023-04-22T09:19:24;94446.06;;;21.26;34.62
9538;BME280;4807;48.024;11.726;2023-04-22T09:22:38;94437.91;;;20.62;35.79
9538;BME280;4807;48.024;11.726;2023-04-22T09:25:47;94456.09;;;20.41;36.18
9538;BME280;4807;48.024;11.726;2023-04-22T09:28:56;94437.44;;;20.29;34.32
9538;BME280;4807;48.024;11.726;2023-04-22T09:32:09;94441.53;;;19.96;34.95
9538;BME280;4807;48.024;11.726;2023-04-22T09:35:26;94443.66;;;20.30;36.39
9538;BME280;4807;48.024;11.726;2023-04-22T09:38:34;94442.53;;;20.56;37.53
9538;BME280;4807;48.024;11.726;2023-04-22T09:41:43;94441.22;;;20.38;34.29
9538;BME280;4807;48.024;11.726;2023-04-22T09:44:51;94438.72;;;19.05;35.88
9538;BME280;4807;48.024;11.726;2023-04-22T09:48:05;94440.75;;;19.86;36.18
9538;BME280;4807;48.024;11.726;2023-04-22T09:51:17;94437.19;;;19.80;34.65
9538;BME280;4807;48.024;11.726;2023-04-22T09:54:25;94436.84;;;20.52;35.30
9538;BME280;4807;48.024;11.726;2023-04-22T09:57:37;94427.81;;;20.87;35.32
9538;BME280;4807;48.024;11.726;2023-04-22T10:00:52;94425.97;;;20.83;31.51
9538;BME280;4807;48.024;11.726;2023-04-22T10:04:00;94420.63;;;20.52;33.63
9538;BME280;4807;48.024;11.726;2023-04-22T10:07:10;94419.78;;;20.72;32.46
9538;BME280;4807;48.024;11.726;2023-04-22T10:10:20;94420.13;;;20.35;32.34
9538;BME280;4807;48.024;11.726;2023-04-22T10:13:29;94407.47;;;20.15;31.56
9538;BME280;4807;48.024;11.726;2023-04-22T10:16:38;94413.94;;;20.04;32.42
9538;BME280;4807;48.024;11.726;2023-04-22T10:19:48;94406.91;;;20.34;33.49
9538;BME280;4807;48.024;11.726;2023-04-22T10:22:59;94404.91;;;20.60;35.02
9538;BME280;4807;48.024;11.726;2023-04-22T10:26:10;94408.63;;;20.79;32.54
9538;BME280;4807;48.024;11.726;2023-04-22T10:29:20;94411.72;;;20.52;33.05
9538;BME280;4807;48.024;11.726;2023-04-22T10:32:28;94407.97;;;20.28;33.68
9538;BME280;4807;48.024;11.726;2023-04-22T10:35:37;94402.19;;;20.70;35.69
9538;BME280;4807;48.024;11.726;2023-04-22T10:39:15;94391.91;;;20.72;33.80
9538;BME280;4807;48.024;11.726;2023-04-22T10:42:27;94392.78;;;20.57;32.17
9538;BME280;4807;48.024;11.726;2023-04-22T10:45:36;94390.66;;;20.44;33.63
9538;BME280;4807;48.024;11.726;2023-04-22T10:48:47;94393.63;;;20.27;31.77
9538;BME280;4807;48.024;11.726;2023-04-22T10:51:57;94387.66;;;20.50;32.68
9538;BME280;4807;48.024;11.726;2023-04-22T10:55:08;94390.44;;;20.94;32.08
9538;BME280;4807;48.024;11.726;2023-04-22T10:58:19;94385.47;;;21.12;31.21
9538;BME280;4807;48.024;11.726;2023-04-22T11:01:27;94383.28;;;21.24;32.13
9538;BME280;4807;48.024;11.726;2023-04-22T11:04:35;94385.28;;;21.47;31.67
9538;BME280;4807;48.024;11.726;2023-04-22T11:07:47;94381.50;;;21.43;35.31
9538;BME280;4807;48.024;11.726;2023-04-22T11:11:07;94380.19;;;20.86;32.76
9538;BME280;4807;48.024;11.726;2023-04-22T11:14:20;94376.34;;;20.33;33.79
9538;BME280;4807;48.024;11.726;2023-04-22T11:17:30;94380.25;;;20.76;35.44
9538;BME280;4807;48.024;11.726;2023-04-22T11:20:39;94380.53;;;20.70;31.74
9538;BME280;4807;48.024;11.726;2023-04-22T11:23:50;94372.69;;;20.73;30.79
9538;BME280;4807;48.024;11.726;2023-04-22T11:27:00;94368.34;;;20.77;32.92
9538;BME280;4807;48.024;11.726;2023-04-22T11:30:11;94367.81;;;21.24;35.92
9538;BME280;4807;48.024;11.726;2023-04-22T11:33:20;94365.25;;;21.43;32.25
9538;BME280;4807;48.024;11.726;2023-04-22T11:36:28;94359.22;;;21.56;31.73
9538;BME280;4807;48.024;11.726;2023-04-22T11:39:37;94359.50;;;21.50;31.59
9538;BME280;4807;48.024;11.726;2023-04-22T11:43:08;94358.41;;;21.56;30.57
9538;BME280;4807;48.024;11.726;2023-04-22T11:46:27;94361.88;;;21.61;30.36
9538;BME280;4807;48.024;11.726;2023-04-22T11:49:37;94355.13;;;21.88;31.16
9538;BME280;4807;48.024;11.726;2023-04-22T11:52:49;94348.91;;;21.87;30.44
9538;BME280;4807;48.024;11.726;2023-04-22T11:55:58;94362.34;;;21.68;29.29
9538;BME280;4807;48.024;11.726;2023-04-22T11:59:11;94364.41;;;21.48;29.97
9538;BME280;4807;48.024;11.726;2023-04-22T12:02:23;94366.72;;;21.64;31.03
9538;BME280;4807;48.024;11.726;2023-04-22T12:05:38;94362.41;;;21.92;31.40
9538;BME280;4807;48.024;11.726;2023-04-22T12:08:49;94358.63;;;21.59;30.50
9538;BME280;4807;48.024;11.726;2023-04-22T12:11:57;94355.31;;;21.67;31.19
9538;BME280;4807;48.024;11.726;2023-04-22T12:15:11;94351.84;;;21.91;30.99
9538;BME280;4807;48.024;11.726;2023-04-22T12:18:35;94349.59;;;22.03;29.96
9538;BME280;4807;48.024;11.726;2023-04-22T12:21:44;94350.69;;;22.02;30.07
9538;BME280;4807;48.024;11.726;2023-04-22T12:24:53;94355.25;;;22.06;30.01
9538;BME280;4807;48.024;11.726;2023-04-22T12:28:05;94346.28;;;22.06;29.87
9538;BME280;4807;48.024;11.726;2023-04-22T12:31:17;94348.16;;;22.34;31.70
9538;BME280;4807;48.024;11.726;2023-04-22T12:34:26;94349.38;;;22.23;29.86
9538;BME280;4807;48.024;11.726;2023-04-22T12:37:34;94345.06;;;21.64;28.34
9538;BME280;4807;48.024;11.726;2023-04-22T12:40:43;94334.44;;;21.68;29.54
9538;BME280;4807;48.024;11.726;2023-04-22T12:43:52;94342.91;;;21.90;30.31
9538;BME280;4807;48.024;11.726;2023-04-22T12:47:03;94340.78;;;22.16;29.83
9538;BME280;4807;48.024;11.726;2023-04-22T12:50:12;94343.84;;;22.10;28.52
9538;BME280;4807;48.024;11.726;2023-04-22T12:53:21;94342.28;;;22.03;28.89
9538;BME280;4807;48.024;11.726;2023-04-22T12:56:29;94340.22;;;22.19;31.15
9538;BME280;4807;48.024;11.726;2023-04-22T12:59:39;94329.00;;;22.26;28.42
9538;BME280;4807;48.024;11.726;2023-04-22T13:02:50;94325.91;;;22.37;30.42
9538;BME280;4807;48.024;11.726;2023-04-22T13:06:00;94328.44;;;22.53;30.41
9538;BME280;4807;48.024;11.726;2023-04-22T13:09:09;94325.75;;;22.29;29.66
9538;BME280;4807;48.024;11.726;2023-04-22T13:12:17;94321.44;;;21.99;28.69
9538;BME280;4807;48.024;11.726;2023-04-22T13:15:26;94321.25;;;22.14;30.17
9538;BME280;4807;48.024;11.726;2023-04-22T13:18:37;94316.31;;;22.45;29.69
9538;BME280;4807;48.024;11.726;2023-04-22T13:21:46;94317.50;;;22.58;28.28
9538;BME280;4807;48.024;11.726;2023-04-22T13:24:55;94311.09;;;22.49;28.87
9538;BME280;4807;48.024;11.726;2023-04-22T13:28:03;94313.69;;;22.59;30.01
9538;BME280;4807;48.024;11.726;2023-04-22T13:31:12;94314.28;;;22.56;30.10
9538;BME280;4807;48.024;11.726;2023-04-22T13:34:21;94311.50;;;22.61;29.90
9538;BME280;4807;48.024;11.726;2023-04-22T13:37:30;94303.16;;;22.10;29.71
9538;BME280;4807;48.024;11.726;2023-04-22T13:40:38;94295.72;;;22.20;31.53
9538;BME280;4807;48.024;11.726;2023-04-22T13:43:46;94289.50;;;22.20;30.20
9538;BME280;4807;48.024;11.726;2023-04-22T13:47:00;94293.47;;;22.27;31.11
9538;BME280;4807;48.024;11.726;2023-04-22T13:50:10;94282.09;;;22.25;30.28
9538;BME280;4807;48.024;11.726;2023-04-22T13:53:19;94279.84;;;22.32;30.24
9538;BME280;4807;48.024;11.726;2023-04-22T13:56:28;94274.88;;;22.39;30.01
9538;BME280;4807;48.024;11.726;2023-04-22T13:59:37;94278.56;;;22.49;30.59
9538;BME280;4807;48.024;11.726;2023-04-22T14:02:45;94272.44;;;22.62;30.66
9538;BME280;4807;48.024;11.726;2023-04-22T14:05:55;94271.72;;;22.75;29.73
9538;BME280;4807;48.024;11.726;2023-04-22T14:09:04;94268.16;;;22.56;30.13
9538;BME280;4807;48.024;11.726;2023-04-22T14:12:13;94268.53;;;22.68;29.43
9538;BME280;4807;48.024;11.726;2023-04-22T14:15:21;94269.84;;;22.70;28.87
9538;BME280;4807;48.024;11.726;2023-04-22T14:18:29;94262.41;;;22.38;28.96
9538;BME280;4807;48.024;11.726;2023-04-22T14:21:43;94261.63;;;22.57;29.17
9538;BME280;4807;48.024;11.726;2023-04-22T14:24:51;94262.88;;;22.45;29.15
9538;BME280;4807;48.024;11.726;2023-04-22T14:28:01;94254.44;;;22.47;31.75
9538;BME280;4807;48.024;11.726;2023-04-22T14:31:10;94260.22;;;22.40;29.83
9538;BME280;4807;48.024;11.726;2023-04-22T14:34:21;94247.09;;;22.29;30.07
9538;BME280;4807;48.024;11.726;2023-04-22T14:37:31;94253.91;;;22.26;30.04
9538;BME280;4807;48.024;11.726;2023-04-22T14:40:41;94242.34;;;22.16;29.61
9538;BME280;4807;48.024;11.726;2023-04-22T14:43:49;94244.50;;;22.19;30.60
9538;BME280;4807;48.024;11.726;2023-04-22T14:46:59;94249.03;;;22.23;30.26
9538;BME280;4807;48.024;11.726;2023-04-22T14:50:09;94246.41;;;22.18;29.28
9538;BME280;4807;48.024;11.726;2023-04-22T14:53:19;94243.25;;;22.30;29.64
9538;BME280;4807;48.024;11.726;2023-04-22T14:56:27;94240.34;;;22.26;29.39
9538;BME280;4807;48.024;11.726;2023-04-22T14:59:36;94241.03;;;22.37;29.04
9538;BME280;4807;48.024;11.726;2023-04-22T15:02:45;94240.38;;;22.45;29.73
9538;BME280;4807;48.024;11.726;2023-04-22T15:05:54;94238.47;;;22.45;29.71
9538;BME280;4807;48.024;11.726;2023-04-22T15:09:09;94238.97;;;22.48;30.00
9538;BME280;4807;48.024;11.726;2023-04-22T15:12:18;94236.84;;;22.44;29.58
9538;BME280;4807;48.024;11.726;2023-04-22T15:15:27;94242.19;;;22.50;29.93
9538;BME280;4807;48.024;11.726;2023-04-22T15:18:35;94237.34;;;22.46;29.21
9538;BME280;4807;48.024;11.726;2023-04-22T15:21:43;94241.38;;;22.49;29.06
9538;BME280;4807;48.024;11.726;2023-04-22T15:24:54;94246.59;;;22.45;30.40
9538;BME280;4807;48.024;11.726;2023-04-22T15:28:02;94243.78;;;22.32;28.22
9538;BME280;4807;48.024;11.726;2023-04-22T15:31:11;94238.75;;;22.01;28.59
9538;BME280;4807;48.024;11.726;2023-04-22T15:34:19;94235.22;;;22.01;30.04
9538;BME280;4807;48.024;11.726;2023-04-22T15:37:28;94236.34;;;21.95;29.80
9538;BME280;4807;48.024;11.726;2023-04-22T15:40:38;94236.91;;;21.92;29.23
9538;BME280;4807;48.024;11.726;2023-04-22T15:43:47;94233.19;;;21.88;30.03
9538;BME280;4807;48.024;11.726;2023-04-22T15:46:57;94242.69;;;21.85;30.10
9538;BME280;4807;48.024;11.726;2023-04-22T15:50:08;94242.69;;;21.85;30.31
9538;BME280;4807;48.024;11.726;2023-04-22T15:53:16;94239.91;;;21.90;30.04
9538;BME280;4807;48.024;11.726;2023-04-22T15:56:26;94242.22;;;21.78;30.73
9538;BME280;4807;48.024;11.726;2023-04-22T15:59:35;94240.19;;;21.65;30.58
9538;BME280;4807;48.024;11.726;2023-04-22T16:02:44;94233.91;;;21.69;30.83
9538;BME280;4807;48.024;11.726;2023-04-22T16:06:01;94238.06;;;21.62;30.78
9538;BME280;4807;48.024;11.726;2023-04-22T16:09:09;94239.44;;;21.59;30.63
9538;BME280;4807;48.024;11.726;2023-04-22T16:12:19;94233.91;;;21.69;30.47
9538;BME280;4807;48.024;11.726;2023-04-22T16:15:27;94238.06;;;21.62;31.31
9538;BME280;4807;48.024;11.726;2023-04-22T16:18:37;94242.72;;;21.56;32.08
9538;BME280;4807;48.024;11.726;2023-04-22T16:21:50;94248.53;;;21.45;30.94
9538;BME280;4807;48.024;11.726;2023-04-22T16:24:58;94243.47;;;21.33;31.17
9538;BME280;4807;48.024;11.726;2023-04-22T16:28:08;94242.78;;;21.22;31.57
9538;BME280;4807;48.024;11.726;2023-04-22T16:31:17;94238.81;;;21.05;31.44
9538;BME280;4807;48.024;11.726;2023-04-22T16:34:29;94248.59;;;21.01;31.03
9538;BME280;4807;48.024;11.726;2023-04-22T16:37:37;94246.75;;;20.96;31.88
9538;BME280;4807;48.024;11.726;2023-04-22T16:40:45;94248.97;;;20.84;32.52
9538;BME280;4807;48.024;11.726;2023-04-22T16:43:56;94248.00;;;20.70;32.39
9538;BME280;4807;48.024;11.726;2023-04-22T16:47:05;94248.88;;;20.60;32.45
9538;BME280;4807;48.024;11.726;2023-04-22T16:50:13;94254.28;;;20.60;32.57
9538;BME280;4807;48.024;11.726;2023-04-22T16:53:23;94247.28;;;20.54;33.17
9538;BME280;4807;48.024;11.726;2023-04-22T16:56:31;94251.09;;;20.48;33.00
9538;BME280;4807;48.024;11.726;2023-04-22T16:59:40;94245.44;;;20.44;33.40
9538;BME280;4807;48.024;11.726;2023-04-22T17:02:48;94250.94;;;20.34;34.18
9538;BME280;4807;48.024;11.726;2023-04-22T17:05:57;94240.94;;;20.19;34.11